Time;durP1;ratioP1;P1;durP2;ratioP2;P2;SDS_P1;SDS_P2;PMS_P1;PMS_P2;Temp;Humidity;BMP_temperature;BMP_pressure;BME280_temperature;BME280_humidity;BME280_pressure;Samples;Min_cycle;Max_cycle;Signal;HPM_P1;HPM_P2
2023/08/04 00:02:14;;;;;;;5.65;1.10;;;;;;;;;;4999165;28;20050;-67
2023/08/04 00:04:59;;;;;;;3.08;1.05;;;;;;;;;;5019031;28;20500;-67
2023/08/04 00:07:44;;;;;;;2.28;0.93;;;;;;;;;;4991974;28;20037;-73
2023/08/04 00:10:29;;;;;;;2.15;1.10;;;;;;;;;;5020720;28;20022;-72
2023/08/04 00:13:14;;;;;;;3.25;0.98;;;;;;;;;;5005856;28;20042;-74
2023/08/04 00:16:07;;;;;;;4.90;1.30;;;;;;;;;;5000588;28;20029;-72
2023/08/04 00:18:52;;;;;;;2.28;1.00;;;;;;;;;;5003750;28;20082;-73
2023/08/04 00:21:37;;;;;;;4.78;1.00;;;;;;;;;;5009758;28;20021;-73
2023/08/04 00:24:22;;;;;;;1.05;0.90;;;;;;;;;;5003583;28;20026;-75
2023/08/04 00:27:08;;;;;;;2.00;1.10;;;;;;;;;;5013002;28;20029;-74
2023/08/04 00:29:53;;;;;;;2.13;1.13;;;;;;;;;;5022191;28;20469;-73
2023/08/04 00:32:39;;;;;;;1.92;1.20;;;;;;;;;;5009111;28;20045;-73
2023/08/04 00:35:24;;;;;;;1.73;1.10;;;;;;;;;;4992724;28;20030;-72
2023/08/04 00:38:09;;;;;;;2.63;1.10;;;;;;;;;;5005435;28;20556;-73
2023/08/04 00:40:54;;;;;;;2.25;0.90;;;;;;;;;;4978604;28;20096;-73
2023/08/04 00:43:40;;;;;;;1.30;0.88;;;;;;;;;;4997685;28;20032;-74
2023/08/04 00:46:26;;;;;;;0.90;0.88;;;;;;;;;;5000955;28;20740;-73
2023/08/04 00:49:11;;;;;;;1.77;0.98;;;;;;;;;;5006106;28;20037;-73
2023/08/04 00:51:56;;;;;;;1.55;1.05;;;;;;;;;;4996405;28;20052;-74
2023/08/04 00:54:43;;;;;;;2.50;1.00;;;;;;;;;;4994341;28;20470;-74
2023/08/04 00:57:28;;;;;;;3.80;1.35;;;;;;;;;;4997797;28;20036;-74
2023/08/04 01:00:14;;;;;;;6.40;1.10;;;;;;;;;;4999181;28;20030;-73
2023/08/04 01:02:59;;;;;;;2.67;1.13;;;;;;;;;;4993679;28;20026;-77
2023/08/04 01:05:54;;;;;;;3.85;1.30;;;;;;;;;;5000841;28;20033;-73
2023/08/04 01:08:42;;;;;;;2.47;1.23;;;;;;;;;;5002567;28;20080;-73
2023/08/04 01:11:31;;;;;;;4.13;1.02;;;;;;;;;;5013937;28;20017;-73
2023/08/04 01:14:16;;;;;;;;;;;;;;;;;;4984989;28;20121;-73
2023/08/04 01:17:03;;;;;;;1.45;0.90;;;;;;;;;;4989841;28;19964;-74
2023/08/04 01:19:49;;;;;;;2.53;1.20;;;;;;;;;;4999820;28;20023;-73
2023/08/04 01:22:34;;;;;;;0.95;0.80;;;;;;;;;;5004905;28;20017;-67
2023/08/04 01:25:24;;;;;;;1.85;1.05;;;;;;;;;;5003745;28;20025;-66
2023/08/04 01:28:12;;;;;;;2.80;1.20;;;;;;;;;;5005695;28;20117;-67
2023/08/04 01:30:59;;;;;;;3.75;1.08;;;;;;;;;;5016878;28;20041;-68
2023/08/04 01:33:44;;;;;;;2.42;1.30;;;;;;;;;;5007338;28;20069;-66
2023/08/04 01:36:29;;;;;;;3.45;1.17;;;;;;;;;;4994347;28;20425;-71
2023/08/04 01:39:14;;;;;;;2.00;1.02;;;;;;;;;;5007567;28;20184;-73
2023/08/04 01:42:00;;;;;;;3.70;1.40;;;;;;;;;;5005148;28;20037;-70
2023/08/04 01:44:45;;;;;;;2.20;0.93;;;;;;;;;;5007696;28;20413;-70
2023/08/04 01:47:30;;;;;;;2.38;1.13;;;;;;;;;;4995781;28;20028;-70
2023/08/04 01:50:15;;;;;;;7.00;1.10;;;;;;;;;;5000034;28;20626;-72
2023/08/04 01:53:01;;;;;;;5.88;1.30;;;;;;;;;;5002261;28;20046;-71
2023/08/04 01:55:49;;;;;;;3.67;1.10;;;;;;;;;;5003062;28;20024;-69
2023/08/04 01:58:34;;;;;;;3.00;1.00;;;;;;;;;;4997752;28;20038;-73
2023/08/04 02:01:20;;;;;;;3.58;1.20;;;;;;;;;;4991249;28;20030;-74
2023/08/04 02:04:05;;;;;;;3.28;1.73;;;;;;;;;;4998563;28;20034;-76
2023/08/04 02:06:50;;;;;;;3.65;1.10;;;;;;;;;;4993338;28;20036;-74
2023/08/04 02:09:35;;;;;;;3.17;0.93;;;;;;;;;;4993744;28;20026;-75
2023/08/04 02:12:20;;;;;;;5.60;1.55;;;;;;;;;;4994838;28;20057;-73
2023/08/04 02:15:06;;;;;;;1.67;1.00;;;;;;;;;;4981156;28;20487;-70
2023/08/04 02:17:51;;;;;;;4.55;1.10;;;;;;;;;;4998821;28;20030;-73
2023/08/04 02:20:36;;;;;;;3.00;0.90;;;;;;;;;;5007821;28;20027;-74
2023/08/04 02:23:21;;;;;;;1.13;0.93;;;;;;;;;;4990184;28;20473;-72
2023/08/04 02:26:07;;;;;;;2.85;1.48;;;;;;;;;;4998542;28;20057;-72
2023/08/04 02:28:53;;;;;;;3.17;1.02;;;;;;;;;;5009091;28;20018;-73
2023/08/04 02:31:38;;;;;;;3.47;1.33;;;;;;;;;;5006869;28;20037;-73
2023/08/04 02:34:23;;;;;;;2.75;1.10;;;;;;;;;;4997743;28;20292;-72
2023/08/04 02:37:09;;;;;;;2.42;1.10;;;;;;;;;;5002432;28;20483;-68
2023/08/04 02:39:54;;;;;;;2.15;1.27;;;;;;;;;;5008864;28;20489;-69
2023/08/04 02:42:39;;;;;;;2.95;1.00;;;;;;;;;;5013518;28;20036;-67
2023/08/04 02:45:24;;;;;;;2.28;1.40;;;;;;;;;;4992128;28;20030;-67
2023/08/04 02:48:09;;;;;;;2.72;1.20;;;;;;;;;;4998912;28;20017;-68
2023/08/04 02:51:02;;;;;;;3.33;1.40;;;;;;;;;;4999193;28;20022;-68
2023/08/04 02:53:48;;;;;;;5.45;1.00;;;;;;;;;;5003645;28;20528;-70
2023/08/04 02:56:34;;;;;;;2.90;1.27;;;;;;;;;;4994863;28;20559;-70
2023/08/04 02:59:19;;;;;;;2.20;1.00;;;;;;;;;;4997603;28;20100;-72
2023/08/04 03:02:04;;;;;;;2.50;1.50;;;;;;;;;;4994251;28;20103;-71
2023/08/04 03:04:49;;;;;;;2.33;1.63;;;;;;;;;;5008035;28;20022;-69
2023/08/04 03:07:35;;;;;;;2.50;1.23;;;;;;;;;;5006803;28;20033;-69
2023/08/04 03:10:20;;;;;;;1.95;1.15;;;;;;;;;;4995648;28;20036;-67
2023/08/04 03:13:05;;;;;;;4.88;1.10;;;;;;;;;;5005597;28;20038;-72
2023/08/04 03:15:57;;;;;;;4.03;1.10;;;;;;;;;;5008636;28;20022;-74
2023/08/04 03:18:42;;;;;;;3.80;1.17;;;;;;;;;;4994749;28;20029;-73
2023/08/04 03:21:28;;;;;;;4.07;1.27;;;;;;;;;;5012893;28;20120;-73
2023/08/04 03:24:13;;;;;;;3.25;1.17;;;;;;;;;;5004613;28;20179;-73
2023/08/04 03:26:58;;;;;;;4.22;1.10;;;;;;;;;;4992289;28;20545;-72
2023/08/04 03:29:43;;;;;;;2.50;1.05;;;;;;;;;;5001027;28;20029;-70
2023/08/04 03:32:28;;;;;;;4.95;1.50;;;;;;;;;;4991477;28;20129;-70
2023/08/04 03:35:14;;;;;;;3.30;1.40;;;;;;;;;;4992236;28;20144;-70
2023/08/04 03:37:59;;;;;;;3.38;1.30;;;;;;;;;;4983299;28;20306;-71
2023/08/04 03:40:44;;;;;;;4.53;1.40;;;;;;;;;;4988956;28;20034;-70
2023/08/04 03:43:29;;;;;;;6.50;1.10;;;;;;;;;;5001945;28;20048;-70
2023/08/04 03:46:15;;;;;;;7.40;1.52;;;;;;;;;;4998915;28;20477;-70
2023/08/04 03:49:00;;;;;;;1.63;0.98;;;;;;;;;;4987612;28;20022;-71
2023/08/04 03:51:45;;;;;;;2.35;1.23;;;;;;;;;;4995808;28;20043;-73
2023/08/04 03:54:30;;;;;;;1.95;0.80;;;;;;;;;;5005991;28;20188;-73
2023/08/04 03:57:16;;;;;;;3.85;1.25;;;;;;;;;;4983098;28;20461;-74
2023/08/04 04:00:01;;;;;;;2.13;1.05;;;;;;;;;;4989531;28;20037;-74
2023/08/04 04:02:47;;;;;;;6.18;1.52;;;;;;;;;;4990418;28;20030;-74
2023/08/04 04:05:32;;;;;;;1.38;1.20;;;;;;;;;;5008289;28;20029;-69
2023/08/04 04:08:17;;;;;;;2.42;1.05;;;;;;;;;;5005343;28;20091;-67
2023/08/04 04:11:03;;;;;;;1.70;1.17;;;;;;;;;;4995686;28;20223;-72
2023/08/04 04:13:48;;;;;;;4.13;1.05;;;;;;;;;;5005115;28;20038;-70
2023/08/04 04:16:33;;;;;;;2.17;0.88;;;;;;;;;;5012988;28;20238;-69
2023/08/04 04:19:18;;;;;;;3.63;1.55;;;;;;;;;;5010462;28;20079;-67
2023/08/04 04:22:04;;;;;;;1.55;1.00;;;;;;;;;;5016500;28;20040;-73
2023/08/04 04:24:49;;;;;;;2.58;1.30;;;;;;;;;;4991381;28;20030;-72
2023/08/04 04:27:34;;;;;;;2.80;1.30;;;;;;;;;;5006951;28;20481;-71
2023/08/04 04:30:19;;;;;;;2.60;1.00;;;;;;;;;;5002994;28;20031;-74
2023/08/04 04:33:05;;;;;;;2.85;1.35;;;;;;;;;;4991432;28;20374;-74
2023/08/04 04:35:50;;;;;;;6.53;1.30;;;;;;;;;;4996824;28;20022;-72
2023/08/04 04:38:35;;;;;;;6.82;1.50;;;;;;;;;;5014607;28;20128;-72
2023/08/04 04:41:21;;;;;;;3.55;1.33;;;;;;;;;;4988165;28;20026;-71
2023/08/04 04:44:06;;;;;;;2.42;1.08;;;;;;;;;;5003439;28;20041;-72
2023/08/04 04:46:51;;;;;;;2.63;1.20;;;;;;;;;;4992142;28;20501;-72
2023/08/04 04:49:36;;;;;;;3.05;1.25;;;;;;;;;;5004310;28;20080;-73
2023/08/04 04:52:29;;;;;;;4.22;1.30;;;;;;;;;;4994853;28;20093;-72
2023/08/04 04:55:14;;;;;;;1.63;1.10;;;;;;;;;;4997371;28;20034;-74
2023/08/04 04:57:59;;;;;;;7.20;1.70;;;;;;;;;;4990835;28;20018;-73
2023/08/04 05:00:45;;;;;;;4.30;1.27;;;;;;;;;;5002088;28;20034;-73
2023/08/04 05:03:30;;;;;;;5.22;1.40;;;;;;;;;;5007406;28;20014;-73
2023/08/04 05:06:15;;;;;;;7.47;1.95;;;;;;;;;;4995590;28;20027;-73
2023/08/04 05:09:00;;;;;;;2.85;1.15;;;;;;;;;;4998668;28;20543;-73
2023/08/04 05:11:46;;;;;;;3.80;1.27;;;;;;;;;;4992698;28;20117;-73
2023/08/04 05:14:31;;;;;;;4.50;1.33;;;;;;;;;;4991489;28;20121;-74
2023/08/04 05:17:16;;;;;;;2.03;1.10;;;;;;;;;;4997569;28;20113;-72
2023/08/04 05:20:03;;;;;;;2.33;1.10;;;;;;;;;;5011872;28;20034;-69
2023/08/04 05:22:49;;;;;;;3.70;1.30;;;;;;;;;;4984387;28;20026;-71
2023/08/04 05:25:34;;;;;;;8.82;2.22;;;;;;;;;;4992485;28;20087;-71
2023/08/04 05:28:24;;;;;;;4.07;2.22;;;;;;;;;;4988459;28;20505;-71
2023/08/04 05:31:09;;;;;;;2.60;1.35;;;;;;;;;;5007846;28;20026;-73
2023/08/04 05:33:56;;;;;;;1.88;1.00;;;;;;;;;;4999863;28;20042;-72
2023/08/04 05:36:41;;;;;;;1.80;0.90;;;;;;;;;;4991749;28;20022;-75
2023/08/04 05:39:26;;;;;;;5.97;1.23;;;;;;;;;;5000495;28;20070;-71
2023/08/04 05:42:11;;;;;;;4.68;1.30;;;;;;;;;;4995252;28;20030;-70
2023/08/04 05:44:56;;;;;;;2.08;0.95;;;;;;;;;;5007862;28;20033;-71
2023/08/04 05:47:42;;;;;;;2.15;0.90;;;;;;;;;;4997192;28;20353;-71
2023/08/04 05:50:27;;;;;;;2.75;1.17;;;;;;;;;;5007632;28;20037;-71
2023/08/04 05:53:12;;;;;;;5.70;1.33;;;;;;;;;;5008321;28;20140;-72
2023/08/04 05:55:57;;;;;;;3.30;0.88;;;;;;;;;;5000242;28;20341;-74
2023/08/04 05:58:43;;;;;;;7.05;1.17;;;;;;;;;;4985256;28;20025;-75
2023/08/04 06:01:28;;;;;;;2.83;1.10;;;;;;;;;;4976834;28;20046;-74
2023/08/04 06:04:13;;;;;;;3.78;1.30;;;;;;;;;;5001721;28;20123;-74
2023/08/04 06:06:58;;;;;;;2.35;1.20;;;;;;;;;;5001530;28;20557;-74
2023/08/04 06:09:44;;;;;;;2.05;1.00;;;;;;;;;;4997448;28;20108;-75
2023/08/04 06:12:29;;;;;;;1.60;0.90;;;;;;;;;;4998040;28;20029;-67
2023/08/04 06:15:15;;;;;;;2.47;1.23;;;;;;;;;;5003389;28;20125;-76
2023/08/04 06:18:00;;;;;;;5.43;1.50;;;;;;;;;;4999348;28;20017;-72
2023/08/04 06:20:47;;;;;;;5.82;1.30;;;;;;;;;;5008564;28;20313;-68
2023/08/04 06:23:32;;;;;;;4.60;1.10;;;;;;;;;;4994829;28;20018;-68
2023/08/04 06:26:18;;;;;;;1.98;0.90;;;;;;;;;;5007977;28;20045;-69
2023/08/04 06:29:03;;;;;;;1.38;0.93;;;;;;;;;;4993859;28;20026;-69
2023/08/04 06:31:48;;;;;;;2.60;1.20;;;;;;;;;;5008387;28;20049;-70
2023/08/04 06:34:34;;;;;;;1.15;1.00;;;;;;;;;;5006238;28;20061;-73
2023/08/04 06:37:19;;;;;;;3.65;1.17;;;;;;;;;;4994940;28;20121;-74
2023/08/04 06:40:04;;;;;;;1.63;0.95;;;;;;;;;;4993146;28;20026;-74
2023/08/04 06:42:50;;;;;;;2.42;1.27;;;;;;;;;;4999478;28;20112;-76
2023/08/04 06:45:35;;;;;;;3.28;1.25;;;;;;;;;;5000777;28;20027;-75
2023/08/04 06:48:21;;;;;;;2.08;1.00;;;;;;;;;;4999177;28;20469;-73
2023/08/04 06:51:07;;;;;;;5.45;1.20;;;;;;;;;;4986679;28;20049;-72
2023/08/04 06:53:52;;;;;;;4.03;1.15;;;;;;;;;;5001198;28;20072;-76
2023/08/04 06:56:37;;;;;;;8.30;1.48;;;;;;;;;;4992439;28;20027;-75
2023/08/04 06:59:22;;;;;;;3.33;0.93;;;;;;;;;;5010746;28;20036;-75
2023/08/04 07:02:08;;;;;;;2.25;1.00;;;;;;;;;;5004839;28;20053;-75
2023/08/04 07:04:53;;;;;;;3.13;1.02;;;;;;;;;;5002107;28;20030;-74
2023/08/04 07:07:38;;;;;;;3.60;1.00;;;;;;;;;;4986329;28;20033;-75
2023/08/04 07:10:24;;;;;;;4.70;1.20;;;;;;;;;;4984142;28;20049;-70
2023/08/04 07:13:09;;;;;;;2.10;1.10;;;;;;;;;;5008276;28;20044;-69
2023/08/04 07:15:55;;;;;;;8.15;1.80;;;;;;;;;;4997635;28;20440;-69
2023/08/04 07:18:40;;;;;;;3.10;1.38;;;;;;;;;;5008292;28;20048;-66
2023/08/04 07:21:25;;;;;;;3.60;1.13;;;;;;;;;;5000645;28;20083;-69
2023/08/04 07:24:11;;;;;;;2.28;1.25;;;;;;;;;;4992439;28;20123;-66
2023/08/04 07:26:56;;;;;;;5.53;1.40;;;;;;;;;;5006309;28;20108;-73
2023/08/04 07:29:41;;;;;;;4.22;1.10;;;;;;;;;;4993408;28;20036;-65
2023/08/04 07:32:26;;;;;;;2.53;1.23;;;;;;;;;;4992453;28;20036;-71
2023/08/04 07:35:12;;;;;;;1.60;0.95;;;;;;;;;;5000700;28;20396;-71
2023/08/04 07:37:57;;;;;;;2.63;1.23;;;;;;;;;;4996495;28;20134;-71
2023/08/04 07:40:42;;;;;;;3.53;1.20;;;;;;;;;;4996449;28;20057;-68
2023/08/04 07:43:27;;;;;;;3.58;1.33;;;;;;;;;;5019497;28;20441;-67
2023/08/04 07:46:39;;;;;;;3.90;1.08;;;;;;;;;;4983160;28;20033;-71
2023/08/04 07:49:24;;;;;;;3.50;0.98;;;;;;;;;;5000872;28;20500;-74
2023/08/04 07:52:09;;;;;;;3.72;1.48;;;;;;;;;;4994708;28;20103;-73
2023/08/04 07:54:55;;;;;;;2.17;1.30;;;;;;;;;;5006920;28;20447;-72
2023/08/04 07:57:40;;;;;;;1.77;0.80;;;;;;;;;;4996383;28;20038;-73
2023/08/04 08:00:25;;;;;;;2.25;1.13;;;;;;;;;;5007399;28;20030;-73
2023/08/04 08:03:10;;;;;;;2.25;0.98;;;;;;;;;;4996716;28;20022;-74
2023/08/04 08:05:55;;;;;;;1.38;0.85;;;;;;;;;;5010642;28;20029;-75
2023/08/04 08:08:41;;;;;;;3.25;1.30;;;;;;;;;;4982293;28;20400;-74
2023/08/04 08:11:26;;;;;;;2.67;1.45;;;;;;;;;;5005039;28;20125;-76
2023/08/04 08:14:11;;;;;;;3.40;1.10;;;;;;;;;;4998739;28;20034;-74
2023/08/04 08:16:56;;;;;;;3.45;1.10;;;;;;;;;;5007375;28;20112;-75
2023/08/04 08:19:42;;;;;;;3.53;1.08;;;;;;;;;;5014664;28;20029;-74
2023/08/04 08:22:27;;;;;;;6.97;1.73;;;;;;;;;;4992482;28;20026;-72
2023/08/04 08:25:12;;;;;;;3.97;1.30;;;;;;;;;;4994321;28;20061;-70
2023/08/04 08:27:58;;;;;;;2.88;0.82;;;;;;;;;;4994158;28;20034;-69
2023/08/04 08:30:43;;;;;;;2.08;1.23;;;;;;;;;;4998058;28;20117;-70
2023/08/04 08:33:28;;;;;;;3.20;1.00;;;;;;;;;;4994028;28;20049;-69
2023/08/04 08:36:13;;;;;;;2.08;0.98;;;;;;;;;;4993097;28;20034;-71
2023/08/04 08:38:58;;;;;;;2.08;0.98;;;;;;;;;;5005626;28;20536;-71
2023/08/04 08:41:44;;;;;;;2.20;1.20;;;;;;;;;;4998558;28;20026;-70
2023/08/04 08:44:29;;;;;;;4.82;1.33;;;;;;;;;;5019328;28;20024;-73
2023/08/04 08:47:16;;;;;;;3.05;1.17;;;;;;;;;;4996891;28;20087;-72
2023/08/04 08:50:03;;;;;;;2.10;1.20;;;;;;;;;;4996164;28;20112;-74
2023/08/04 08:52:50;;;;;;;3.10;1.10;;;;;;;;;;5009159;28;20452;-73
2023/08/04 08:55:37;;;;;;;3.55;1.45;;;;;;;;;;5002057;28;20037;-74
2023/08/04 08:58:22;;;;;;;1.88;1.10;;;;;;;;;;5020463;28;20033;-74
2023/08/04 09:01:08;;;;;;;4.47;1.73;;;;;;;;;;5004271;28;20272;-68
2023/08/04 09:03:53;;;;;;;3.95;1.58;;;;;;;;;;5005235;28;20027;-73
2023/08/04 09:06:39;;;;;;;1.73;1.10;;;;;;;;;;4993806;28;20068;-72
2023/08/04 09:09:24;;;;;;;5.90;2.42;;;;;;;;;;4990219;28;20026;-72
2023/08/04 09:12:09;;;;;;;4.90;1.40;;;;;;;;;;5012603;28;20037;-71
2023/08/04 09:14:55;;;;;;;4.95;2.25;;;;;;;;;;5008693;28;20072;-73
2023/08/04 09:17:41;;;;;;;3.42;1.27;;;;;;;;;;4986889;28;20506;-70
2023/08/04 09:20:28;;;;;;;6.20;1.75;;;;;;;;;;5007769;28;20121;-69
2023/08/04 09:23:13;;;;;;;4.60;0.90;;;;;;;;;;5005890;28;20477;-67
2023/08/04 09:25:58;;;;;;;2.22;1.33;;;;;;;;;;4998067;28;20029;-68
2023/08/04 09:28:44;;;;;;;5.00;1.50;;;;;;;;;;4997950;28;20511;-67
2023/08/04 09:31:36;;;;;;;5.95;1.75;;;;;;;;;;5006837;28;20033;-67
2023/08/04 09:34:21;;;;;;;4.97;1.90;;;;;;;;;;4999259;28;20034;-67
2023/08/04 09:37:06;;;;;;;4.35;1.42;;;;;;;;;;4990709;28;20026;-75
2023/08/04 09:39:51;;;;;;;3.78;1.88;;;;;;;;;;5006820;28;20038;-71
2023/08/04 09:42:37;;;;;;;2.45;1.23;;;;;;;;;;4996940;28;20165;-72
2023/08/04 09:45:22;;;;;;;2.08;1.25;;;;;;;;;;4996387;28;20488;-72
2023/08/04 09:48:08;;;;;;;3.33;1.45;;;;;;;;;;4998673;28;20017;-72
2023/08/04 09:51:12;;;;;;;2.05;1.00;;;;;;;;;;5008791;28;20091;-72
2023/08/04 09:53:58;;;;;;;2.45;1.20;;;;;;;;;;5010028;28;20045;-77
2023/08/04 09:56:43;;;;;;;2.95;1.10;;;;;;;;;;5003610;28;20393;-68
2023/08/04 09:59:29;;;;;;;4.45;1.33;;;;;;;;;;5014917;28;20030;-68
2023/08/04 10:02:15;;;;;;;4.13;1.02;;;;;;;;;;5003430;28;20030;-67
2023/08/04 10:05:01;;;;;;;2.70;0.98;;;;;;;;;;5008668;28;20021;-68
2023/08/04 10:07:47;;;;;;;1.40;0.93;;;;;;;;;;5008627;28;20041;-68
2023/08/04 10:10:32;;;;;;;3.00;1.30;;;;;;;;;;4996252;28;20034;-68
2023/08/04 10:13:20;;;;;;;2.92;1.10;;;;;;;;;;5025478;28;20033;-73
2023/08/04 10:16:06;;;;;;;2.97;1.15;;;;;;;;;;5005097;28;20469;-76
2023/08/04 10:18:53;;;;;;;3.13;1.27;;;;;;;;;;5003736;28;20037;-74
2023/08/04 10:21:39;;;;;;;3.13;1.00;;;;;;;;;;5004324;28;20022;-75
2023/08/04 10:24:26;;;;;;;1.05;0.80;;;;;;;;;;4990292;28;20058;-75
2023/08/04 10:27:19;;;;;;;4.30;1.15;;;;;;;;;;5004082;28;20030;-75
2023/08/04 10:30:11;;;;;;;4.55;1.10;;;;;;;;;;5004230;28;20451;-75
2023/08/04 10:33:07;;;;;;;2.03;0.90;;;;;;;;;;4991197;28;20022;-71
2023/08/04 10:36:03;;;;;;;2.88;1.48;;;;;;;;;;4995122;28;20087;-71
2023/08/04 10:38:49;;;;;;;2.85;1.30;;;;;;;;;;5008884;28;20108;-71
2023/08/04 10:41:36;;;;;;;2.95;1.20;;;;;;;;;;5008952;28;20040;-73
2023/08/04 10:44:46;;;;;;;1.58;0.90;;;;;;;;;;4988857;28;20119;-71
2023/08/04 10:47:32;;;;;;;4.07;1.10;;;;;;;;;;4995100;28;20033;-70
2023/08/04 10:50:17;;;;;;;1.52;0.93;;;;;;;;;;4998962;28;20030;-73
2023/08/04 10:53:03;;;;;;;3.33;1.40;;;;;;;;;;4976441;28;20076;-76
2023/08/04 10:55:55;;;;;;;7.55;1.77;;;;;;;;;;4988179;28;20037;-76
2023/08/04 10:58:40;;;;;;;4.00;1.45;;;;;;;;;;4997569;28;20026;-74
2023/08/04 11:01:26;;;;;;;5.63;1.38;;;;;;;;;;5002980;28;20109;-76
2023/08/04 11:04:11;;;;;;;3.08;1.00;;;;;;;;;;4995815;28;20062;-75
2023/08/04 11:06:57;;;;;;;1.10;0.90;;;;;;;;;;4996327;28;20022;-77
2023/08/04 11:09:44;;;;;;;5.32;1.77;;;;;;;;;;4995038;28;20116;-75
2023/08/04 11:12:29;;;;;;;2.28;1.13;;;;;;;;;;5007225;28;20072;-74
2023/08/04 11:15:14;;;;;;;3.42;1.20;;;;;;;;;;5008311;28;20570;-76
2023/08/04 11:17:59;;;;;;;1.20;1.00;;;;;;;;;;4994117;28;20080;-77
2023/08/04 11:20:45;;;;;;;5.57;1.60;;;;;;;;;;4997502;28;20079;-75
2023/08/04 11:23:31;;;;;;;2.38;1.38;;;;;;;;;;4991727;28;20018;-75
2023/08/04 11:26:16;;;;;;;2.85;1.55;;;;;;;;;;5001176;28;20060;-70
2023/08/04 11:29:03;;;;;;;4.95;1.60;;;;;;;;;;4987836;28;20025;-73
2023/08/04 11:31:50;;;;;;;5.80;3.28;;;;;;;;;;4991504;28;20033;-74
2023/08/04 11:34:35;;;;;;;4.75;2.10;;;;;;;;;;5006332;28;20030;-72
2023/08/04 11:37:22;;;;;;;3.47;1.85;;;;;;;;;;5001117;28;20518;-72
2023/08/04 11:40:17;;;;;;;3.03;1.25;;;;;;;;;;5000881;28;20022;-73
2023/08/04 11:43:04;;;;;;;4.55;1.83;;;;;;;;;;4987918;28;20026;-71
2023/08/04 11:45:49;;;;;;;3.72;1.08;;;;;;;;;;4975642;28;20036;-76
2023/08/04 11:48:35;;;;;;;3.63;1.25;;;;;;;;;;4999871;28;20029;-69
2023/08/04 11:51:21;;;;;;;4.63;1.50;;;;;;;;;;4995193;28;20031;-68
2023/08/04 11:54:15;;;;;;;3.53;1.40;;;;;;;;;;5000975;28;20037;-70
2023/08/04 11:57:00;;;;;;;2.05;1.02;;;;;;;;;;4992276;28;20014;-68
2023/08/04 11:59:46;;;;;;;4.63;1.92;;;;;;;;;;5003519;28;20032;-71
2023/08/04 12:02:31;;;;;;;2.00;0.93;;;;;;;;;;4990714;28;20019;-74
2023/08/04 12:05:16;;;;;;;2.05;1.13;;;;;;;;;;4982416;28;20037;-72
2023/08/04 12:08:12;;;;;;;2.15;1.20;;;;;;;;;;4990238;28;20492;-72
2023/08/04 12:11:01;;;;;;;2.83;1.30;;;;;;;;;;4992850;28;20216;-74
2023/08/04 12:13:47;;;;;;;2.25;1.10;;;;;;;;;;4998255;28;20037;-71
2023/08/04 12:16:32;;;;;;;2.63;1.08;;;;;;;;;;4999054;28;20105;-74
2023/08/04 12:19:18;;;;;;;3.20;1.40;;;;;;;;;;5009718;28;20029;-72
2023/08/04 12:22:03;;;;;;;4.57;1.20;;;;;;;;;;5007332;28;20065;-75
2023/08/04 12:24:49;;;;;;;2.17;1.05;;;;;;;;;;5009554;28;20022;-75
2023/08/04 12:27:34;;;;;;;3.17;1.60;;;;;;;;;;5005821;28;20390;-77
2023/08/04 12:30:19;;;;;;;2.95;1.30;;;;;;;;;;5009703;28;20030;-74
2023/08/04 12:33:05;;;;;;;1.45;1.05;;;;;;;;;;5008696;28;20112;-76
2023/08/04 12:35:50;;;;;;;3.53;1.45;;;;;;;;;;5022275;28;20496;-75
2023/08/04 12:38:35;;;;;;;1.90;0.90;;;;;;;;;;4997689;28;20029;-74
2023/08/04 12:41:21;;;;;;;2.67;1.23;;;;;;;;;;5019246;28;20094;-74
2023/08/04 12:44:06;;;;;;;3.10;1.23;;;;;;;;;;4985452;28;20252;-75
2023/08/04 12:46:52;;;;;;;2.45;0.98;;;;;;;;;;4999679;28;20121;-75
2023/08/04 12:49:37;;;;;;;1.75;0.80;;;;;;;;;;4984127;28;20025;-76
2023/08/04 12:52:22;;;;;;;2.13;1.08;;;;;;;;;;5006418;28;20387;-74
2023/08/04 12:55:07;;;;;;;4.43;1.40;;;;;;;;;;4998787;28;20034;-74
2023/08/04 12:57:53;;;;;;;1.75;0.90;;;;;;;;;;4997665;28;20076;-71
2023/08/04 13:00:38;;;;;;;2.55;1.00;;;;;;;;;;4983584;28;20034;-70
2023/08/04 13:03:23;;;;;;;2.25;1.20;;;;;;;;;;5007299;28;20037;-69
2023/08/04 13:06:08;;;;;;;1.58;0.90;;;;;;;;;;4992012;28;20026;-68
2023/08/04 13:08:54;;;;;;;1.55;1.00;;;;;;;;;;4997267;28;20034;-69
2023/08/04 13:11:39;;;;;;;1.42;0.77;;;;;;;;;;4996869;28;20022;-68
2023/08/04 13:14:24;;;;;;;1.90;0.80;;;;;;;;;;4997036;28;20532;-66
2023/08/04 13:17:09;;;;;;;1.52;1.02;;;;;;;;;;4990767;28;20018;-73
2023/08/04 13:19:54;;;;;;;1.25;0.93;;;;;;;;;;5004035;28;20056;-74
2023/08/04 13:22:40;;;;;;;2.22;1.25;;;;;;;;;;4983972;28;20034;-76
2023/08/04 13:25:25;;;;;;;1.88;0.85;;;;;;;;;;4991121;28;20035;-75
2023/08/04 13:28:10;;;;;;;2.08;0.82;;;;;;;;;;4992668;28;20504;-75
2023/08/04 13:30:55;;;;;;;2.08;1.20;;;;;;;;;;4992812;28;20081;-75
2023/08/04 13:33:41;;;;;;;1.33;1.23;;;;;;;;;;5000039;28;20053;-75
2023/08/04 13:36:26;;;;;;;1.73;0.75;;;;;;;;;;4987479;28;20037;-73
2023/08/04 13:39:11;;;;;;;1.27;0.80;;;;;;;;;;4978817;28;20417;-74
2023/08/04 13:41:56;;;;;;;2.92;1.20;;;;;;;;;;5003296;28;20018;-74
2023/08/04 13:44:42;;;;;;;1.55;1.00;;;;;;;;;;5004232;28;20036;-75
2023/08/04 13:47:27;;;;;;;1.40;1.20;;;;;;;;;;4996464;28;20160;-77
2023/08/04 13:50:12;;;;;;;2.60;1.50;;;;;;;;;;5010662;28;20135;-76
2023/08/04 13:52:57;;;;;;;2.75;1.10;;;;;;;;;;4993351;28;20168;-69
2023/08/04 13:55:43;;;;;;;2.50;1.38;;;;;;;;;;5003108;28;20059;-68
2023/08/04 13:58:28;;;;;;;3.10;1.40;;;;;;;;;;5004547;28;20026;-69
2023/08/04 14:01:13;;;;;;;2.55;1.30;;;;;;;;;;5005385;28;20408;-68
2023/08/04 14:03:58;;;;;;;2.30;1.20;;;;;;;;;;5009556;28;20030;-69
2023/08/04 14:06:43;;;;;;;4.32;1.83;;;;;;;;;;4976940;28;20044;-68
2023/08/04 14:09:29;;;;;;;1.85;1.30;;;;;;;;;;5015145;28;20014;-68
2023/08/04 14:12:14;;;;;;;3.47;1.27;;;;;;;;;;5001427;28;20038;-74
2023/08/04 14:14:59;;;;;;;1.42;1.30;;;;;;;;;;4999204;28;20022;-75
2023/08/04 14:17:45;;;;;;;2.90;1.50;;;;;;;;;;4988351;28;20354;-73
2023/08/04 14:20:30;;;;;;;2.40;1.58;;;;;;;;;;5018193;28;20354;-75
2023/08/04 14:23:15;;;;;;;5.03;1.50;;;;;;;;;;5003398;28;20027;-75
2023/08/04 14:26:01;;;;;;;2.25;1.65;;;;;;;;;;5002943;28;20111;-75
2023/08/04 14:28:46;;;;;;;3.25;1.63;;;;;;;;;;4990713;28;20029;-76
2023/08/04 14:31:31;;;;;;;1.95;1.75;;;;;;;;;;4993440;28;20103;-73
2023/08/04 14:34:16;;;;;;;2.97;1.50;;;;;;;;;;5003310;28;20113;-70
2023/08/04 14:37:02;;;;;;;2.47;1.55;;;;;;;;;;5006847;28;20374;-68
2023/08/04 14:39:48;;;;;;;3.65;1.60;;;;;;;;;;5000672;28;20029;-69
2023/08/04 14:42:33;;;;;;;2.78;1.63;;;;;;;;;;4998816;28;20033;-69
2023/08/04 14:45:18;;;;;;;2.63;2.00;;;;;;;;;;4994514;28;20026;-68
2023/08/04 14:48:03;;;;;;;2.60;1.67;;;;;;;;;;4997374;28;20490;-75
2023/08/04 14:50:49;;;;;;;2.72;1.80;;;;;;;;;;4989514;28;20034;-68
2023/08/04 14:53:34;;;;;;;2.45;1.73;;;;;;;;;;5008625;28;20046;-68
2023/08/04 14:56:19;;;;;;;2.55;1.92;;;;;;;;;;5008469;28;20025;-67
2023/08/04 14:59:04;;;;;;;2.90;1.55;;;;;;;;;;5008956;28;20029;-69
2023/08/04 15:01:50;;;;;;;3.22;1.63;;;;;;;;;;4992168;28;20025;-69
2023/08/04 15:04:35;;;;;;;3.10;1.83;;;;;;;;;;5023048;28;20476;-69
2023/08/04 15:07:21;;;;;;;3.47;2.22;;;;;;;;;;4992403;28;20037;-72
2023/08/04 15:10:07;;;;;;;2.42;1.63;;;;;;;;;;5003411;28;20033;-68
2023/08/04 15:12:52;;;;;;;2.53;1.70;;;;;;;;;;5002369;28;20025;-68
2023/08/04 15:15:37;;;;;;;7.50;2.28;;;;;;;;;;4989572;28;20497;-67
2023/08/04 15:18:22;;;;;;;2.35;2.13;;;;;;;;;;5001836;28;20042;-68
2023/08/04 15:21:08;;;;;;;3.38;2.47;;;;;;;;;;5005183;28;20041;-68
2023/08/04 15:23:53;;;;;;;3.33;1.75;;;;;;;;;;5000174;28;20029;-67
2023/08/04 15:26:38;;;;;;;2.58;1.88;;;;;;;;;;4990157;28;20041;-73
2023/08/04 15:29:24;;;;;;;3.90;1.85;;;;;;;;;;4991566;28;20055;-75
2023/08/04 15:32:10;;;;;;;4.10;2.33;;;;;;;;;;4979998;28;20029;-73
2023/08/04 15:34:55;;;;;;;3.92;2.03;;;;;;;;;;4979598;28;20492;-74
2023/08/04 15:37:40;;;;;;;3.53;2.28;;;;;;;;;;5015786;28;20029;-74
2023/08/04 15:40:25;;;;;;;2.05;1.33;;;;;;;;;;4991415;28;20496;-74
2023/08/04 15:43:12;;;;;;;2.30;2.03;;;;;;;;;;5006331;28;20084;-71
2023/08/04 15:45:58;;;;;;;2.33;1.50;;;;;;;;;;5003787;28;20037;-75
2023/08/04 15:48:43;;;;;;;1.88;1.67;;;;;;;;;;5000909;28;20036;-69
2023/08/04 15:51:28;;;;;;;2.55;2.08;;;;;;;;;;4994103;28;20037;-68
2023/08/04 15:54:13;;;;;;;3.00;2.00;;;;;;;;;;4998441;28;20081;-68
2023/08/04 15:57:00;;;;;;;3.40;2.20;;;;;;;;;;4999229;28;20096;-68
2023/08/04 15:59:45;;;;;;;2.88;2.47;;;;;;;;;;5004078;28;20026;-69
2023/08/04 16:02:30;;;;;;;3.72;2.20;;;;;;;;;;5000226;28;20030;-76
2023/08/04 16:05:15;;;;;;;5.25;2.50;;;;;;;;;;4993783;28;20029;-70
2023/08/04 16:08:01;;;;;;;3.10;2.30;;;;;;;;;;4996771;28;20026;-69
2023/08/04 16:10:46;;;;;;;3.25;2.40;;;;;;;;;;4998046;28;20117;-69
2023/08/04 16:13:31;;;;;;;3.08;2.53;;;;;;;;;;4983969;28;20036;-67
2023/08/04 16:16:17;;;;;;;4.18;3.03;;;;;;;;;;5012159;28;20025;-69
2023/08/04 16:19:03;;;;;;;4.35;2.50;;;;;;;;;;5008685;28;20033;-67
2023/08/04 16:21:48;;;;;;;3.72;2.60;;;;;;;;;;4996906;28;20264;-72
2023/08/04 16:24:33;;;;;;;5.45;2.90;;;;;;;;;;4988109;28;20053;-75
2023/08/04 16:27:18;;;;;;;3.45;2.75;;;;;;;;;;5002350;28;20114;-74
2023/08/04 16:30:04;;;;;;;4.63;2.75;;;;;;;;;;4997765;28;20308;-74
2023/08/04 16:32:49;;;;;;;5.03;2.78;;;;;;;;;;5000653;28;20140;-77
2023/08/04 16:35:34;;;;;;;3.47;2.60;;;;;;;;;;4989313;28;20116;-76